Time;durP1;ratioP1;P1;durP2;ratioP2;P2;SDS_P1;SDS_P2;PMS_P1;PMS_P2;Temp;Humidity;BMP_temperature;BMP_pressure;BME280_temperature;BME280_humidity;BME280_pressure;Samples;Min_cycle;Max_cycle;Signal;HPM_P1;HPM_P2
2024/02/10 00:00:36;;;;;;;2.58;1.20;;;10.20;99.90;;;;;;4998848;28;20046;-65
2024/02/10 00:03:02;;;;;;;1.35;0.90;;;10.20;99.90;;;;;;4991416;28;20034;-65
2024/02/10 00:05:29;;;;;;;7.65;0.77;;;10.20;99.90;;;;;;4973751;28;20042;-65
2024/02/10 00:07:57;;;;;;;1.20;0.60;;;10.20;99.90;;;;;;4974092;28;20029;-66
2024/02/10 00:10:27;;;;;;;0.98;0.57;;;10.20;99.90;;;;;;4974611;28;20081;-65
2024/02/10 00:12:57;;;;;;;1.75;0.77;;;10.20;99.90;;;;;;4974346;28;20030;-65
2024/02/10 00:15:24;;;;;;;1.25;0.73;;;10.20;99.90;;;;;;4948360;28;20033;-67
2024/02/10 00:17:50;;;;;;;1.90;0.93;;;10.20;99.90;;;;;;4979749;28;20027;-65
2024/02/10 00:20:18;;;;;;;1.73;1.13;;;10.30;99.90;;;;;;4990919;28;20034;-65
2024/02/10 00:22:44;;;;;;;2.67;1.55;;;10.30;99.90;;;;;;4974329;28;20057;-65
2024/02/10 00:25:14;;;;;;;1.10;0.65;;;10.30;99.90;;;;;;4973382;28;20038;-65
2024/02/10 00:27:42;;;;;;;2.92;0.60;;;10.40;99.90;;;;;;4990866;28;20533;-65
2024/02/10 00:30:09;;;;;;;3.03;1.17;;;10.30;99.90;;;;;;4986358;28;20038;-66
2024/02/10 00:32:37;;;;;;;3.72;1.00;;;10.40;99.90;;;;;;4957483;28;20034;-66
2024/02/10 00:35:05;;;;;;;1.67;0.93;;;10.40;99.90;;;;;;4965605;28;20521;-65
2024/02/10 00:37:30;;;;;;;1.35;0.88;;;10.40;99.90;;;;;;4986548;28;20038;-65
2024/02/10 00:39:56;;;;;;;1.40;0.80;;;10.40;99.90;;;;;;4954636;28;20030;-66
2024/02/10 00:42:27;;;;;;;0.77;0.45;;;10.40;99.90;;;;;;4990975;28;20061;-65
2024/02/10 00:44:54;;;;;;;1.70;0.85;;;10.40;99.90;;;;;;4954081;28;20042;-65
2024/02/10 00:47:20;;;;;;;2.25;1.23;;;10.40;99.90;;;;;;4970613;28;20057;-65
2024/02/10 00:49:47;;;;;;;1.73;1.17;;;10.40;99.90;;;;;;4991451;28;20436;-65
2024/02/10 00:52:17;;;;;;;1.83;1.10;;;10.40;99.90;;;;;;4989914;28;20533;-68
2024/02/10 00:54:45;;;;;;;1.75;0.70;;;10.50;99.90;;;;;;4974050;28;20026;-68
2024/02/10 00:57:12;;;;;;;1.38;0.82;;;10.50;99.90;;;;;;4973830;28;20044;-66
2024/02/10 00:59:44;;;;;;;0.73;0.55;;;10.50;99.90;;;;;;4962596;28;20022;-66
2024/02/10 01:02:17;;;;;;;1.67;0.80;;;10.50;99.90;;;;;;4975479;28;20042;-66
2024/02/10 01:04:54;;;;;;;1.67;0.80;;;10.60;99.90;;;;;;4973511;28;20030;-66
2024/02/10 01:07:20;;;;;;;1.98;1.10;;;10.60;99.90;;;;;;4991332;28;20027;-66
2024/02/10 01:09:46;;;;;;;1.00;0.70;;;10.60;99.90;;;;;;4974335;28;20058;-66
2024/02/10 01:12:16;;;;;;;1.48;0.82;;;10.60;99.90;;;;;;4993276;28;20038;-64
2024/02/10 01:14:42;;;;;;;1.55;0.93;;;10.60;99.90;;;;;;4978365;28;20463;-65
2024/02/10 01:17:13;;;;;;;1.27;1.00;;;10.50;99.90;;;;;;4956483;28;20034;-65
2024/02/10 01:20:01;;;;;;;0.77;0.65;;;10.50;99.90;;;;;;4994490;28;20482;-65
2024/02/10 01:22:29;;;;;;;1.38;1.05;;;10.60;99.90;;;;;;4993051;28;20050;-65
2024/02/10 01:24:55;;;;;;;1.10;0.70;;;10.70;99.90;;;;;;4993861;28;20399;-65
2024/02/10 01:27:26;;;;;;;2.47;1.13;;;10.60;99.90;;;;;;4990531;28;20034;-65
2024/02/10 01:29:56;;;;;;;6.95;0.95;;;10.70;99.90;;;;;;4984270;28;20041;-65
2024/02/10 01:32:23;;;;;;;2.13;1.27;;;10.60;99.90;;;;;;4976268;28;20041;-65
2024/02/10 01:34:54;;;;;;;1.92;1.17;;;10.60;99.90;;;;;;4973505;28;20121;-65
2024/02/10 01:37:21;;;;;;;1.23;0.63;;;10.60;99.90;;;;;;4990476;28;20081;-65
2024/02/10 01:39:49;;;;;;;2.80;1.55;;;10.60;99.90;;;;;;4977358;28;20049;-65
2024/02/10 01:42:18;;;;;;;2.60;0.90;;;10.60;99.90;;;;;;4976137;28;20041;-65
2024/02/10 01:44:45;;;;;;;1.33;1.23;;;10.60;99.90;;;;;;4972747;28;20037;-65
2024/02/10 01:47:14;;;;;;;4.82;1.50;;;10.60;99.90;;;;;;4990696;28;20470;-65
2024/02/10 01:49:41;;;;;;;2.53;1.25;;;10.70;99.90;;;;;;4993557;28;20088;-65
2024/02/10 01:52:09;;;;;;;1.98;1.10;;;10.70;99.90;;;;;;4975997;28;20042;-65
2024/02/10 01:54:36;;;;;;;4.55;1.60;;;10.70;99.90;;;;;;4976028;28;20026;-65
2024/02/10 01:57:06;;;;;;;1.45;0.90;;;10.70;99.90;;;;;;4993794;28;20034;-65
2024/02/10 01:59:35;;;;;;;3.13;1.30;;;10.70;99.90;;;;;;4980896;28;20049;-65
2024/02/10 02:02:05;;;;;;;1.95;1.25;;;10.60;99.90;;;;;;4976913;28;20376;-65
2024/02/10 02:04:31;;;;;;;2.75;1.90;;;10.60;99.90;;;;;;4990583;28;20030;-65
2024/02/10 02:07:00;;;;;;;2.40;1.38;;;10.60;99.90;;;;;;4969039;28;20026;-65
2024/02/10 02:09:27;;;;;;;3.78;1.58;;;10.60;99.90;;;;;;4974786;28;20246;-65
2024/02/10 02:11:53;;;;;;;2.47;0.90;;;10.70;99.90;;;;;;4975963;28;20026;-65
2024/02/10 02:14:19;;;;;;;2.28;1.02;;;10.70;99.90;;;;;;4992203;28;20032;-65
2024/02/10 02:16:48;;;;;;;3.63;1.88;;;10.70;99.90;;;;;;4954824;28;20019;-65
2024/02/10 02:19:16;;;;;;;2.67;1.13;;;10.70;99.90;;;;;;4976287;28;20069;-65
2024/02/10 02:21:43;;;;;;;8.00;1.30;;;10.70;99.90;;;;;;4972443;28;20030;-65
2024/02/10 02:24:09;;;;;;;2.28;1.35;;;10.70;99.90;;;;;;4973116;28;20056;-65
2024/02/10 02:26:35;;;;;;;2.17;1.13;;;10.70;99.90;;;;;;4975879;28;20026;-65
2024/02/10 02:29:00;;;;;;;1.10;0.82;;;10.70;99.90;;;;;;4993005;28;20568;-65
2024/02/10 02:31:26;;;;;;;1.73;1.15;;;10.70;99.90;;;;;;5000575;28;20026;-65
2024/02/10 02:33:54;;;;;;;1.40;1.17;;;10.80;99.90;;;;;;4993169;28;20081;-65
2024/02/10 02:36:19;;;;;;;0.85;0.68;;;10.70;99.90;;;;;;4985228;28;20121;-65
2024/02/10 02:38:45;;;;;;;1.80;0.95;;;10.70;99.90;;;;;;4993845;28;20065;-65
2024/02/10 02:41:11;;;;;;;2.55;0.98;;;10.70;99.90;;;;;;4986381;28;20073;-65
2024/02/10 02:43:37;;;;;;;2.25;1.63;;;10.70;99.90;;;;;;4992854;28;20113;-65
2024/02/10 02:46:03;;;;;;;2.05;1.10;;;10.80;99.90;;;;;;4975398;28;20061;-65
2024/02/10 02:48:29;;;;;;;3.92;1.60;;;10.70;99.90;;;;;;4975195;28;20088;-65
2024/02/10 02:50:55;;;;;;;2.30;1.13;;;10.80;99.90;;;;;;4992394;28;20046;-65
2024/02/10 02:53:25;;;;;;;1.65;1.15;;;10.70;99.90;;;;;;4966489;28;20018;-65
2024/02/10 02:55:52;;;;;;;1.67;1.08;;;10.70;99.90;;;;;;4992575;28;20030;-65
2024/02/10 02:58:18;;;;;;;3.80;1.13;;;10.70;99.90;;;;;;4992319;28;20077;-65
2024/02/10 03:00:48;;;;;;;3.45;1.70;;;10.60;99.90;;;;;;5000281;28;20029;-65
2024/02/10 03:03:15;;;;;;;3.95;1.45;;;10.60;99.90;;;;;;4990427;28;20057;-65
2024/02/10 03:05:41;;;;;;;3.25;1.08;;;10.60;99.90;;;;;;4992684;28;20045;-65
2024/02/10 03:08:07;;;;;;;4.00;1.13;;;10.50;99.90;;;;;;4990061;28;20368;-65
2024/02/10 03:10:33;;;;;;;2.67;1.40;;;10.50;99.90;;;;;;4990999;28;20466;-65
2024/02/10 03:12:58;;;;;;;2.65;1.35;;;10.50;99.90;;;;;;4991460;28;20034;-65
2024/02/10 03:15:25;;;;;;;4.63;1.85;;;10.40;99.90;;;;;;4986054;28;20585;-65
2024/02/10 03:17:53;;;;;;;3.00;1.10;;;10.50;99.90;;;;;;4973910;28;20483;-65
2024/02/10 03:20:23;;;;;;;8.23;1.30;;;10.50;99.90;;;;;;4992091;28;20034;-65
2024/02/10 03:23:01;;;;;;;2.05;1.20;;;10.40;99.90;;;;;;4991820;28;20038;-65
2024/02/10 03:25:27;;;;;;;3.13;1.58;;;10.40;99.90;;;;;;4974709;28;20057;-65
2024/02/10 03:27:54;;;;;;;1.85;0.95;;;10.40;99.90;;;;;;4953762;28;20034;-65
2024/02/10 03:30:21;;;;;;;2.85;1.20;;;10.40;99.90;;;;;;4999867;28;20030;-65
2024/02/10 03:32:46;;;;;;;5.15;1.75;;;10.40;99.90;;;;;;4989969;28;20050;-65
2024/02/10 03:35:15;;;;;;;3.65;1.90;;;10.40;99.90;;;;;;4973506;28;20026;-65
2024/02/10 03:37:41;;;;;;;6.78;1.42;;;10.40;99.90;;;;;;4974079;28;20440;-65
2024/02/10 03:40:17;;;;;;;3.63;1.88;;;10.40;99.90;;;;;;4992005;28;20113;-65
2024/02/10 03:42:44;;;;;;;4.53;1.92;;;10.40;99.90;;;;;;4975340;28;20122;-65
2024/02/10 03:45:10;;;;;;;4.97;1.98;;;10.40;99.90;;;;;;4973821;28;20022;-65
2024/02/10 03:47:42;;;;;;;3.80;1.75;;;10.40;99.90;;;;;;4974232;28;20120;-65
2024/02/10 03:50:13;;;;;;;3.83;1.98;;;10.40;99.90;;;;;;4958802;28;20463;-65
2024/02/10 03:52:39;;;;;;;7.03;2.17;;;10.40;99.90;;;;;;4958393;28;20037;-65
2024/02/10 03:55:08;;;;;;;5.25;2.35;;;10.40;99.90;;;;;;4983124;28;20388;-65
2024/02/10 03:57:35;;;;;;;6.55;2.72;;;10.40;99.90;;;;;;4991200;28;20041;-65
2024/02/10 04:00:06;;;;;;;4.25;2.63;;;10.40;99.90;;;;;;4999264;28;20394;-65
2024/02/10 04:02:35;;;;;;;;;;;10.40;99.90;;;;;;4992041;28;20038;-65
2024/02/10 04:05:02;;;;;;;5.32;2.35;;;10.50;99.90;;;;;;4990800;28;19910;-65
2024/02/10 04:07:29;;;;;;;5.13;1.95;;;10.50;99.90;;;;;;4957460;28;20034;-65
2024/02/10 04:09:55;;;;;;;4.28;2.00;;;10.50;99.90;;;;;;4991662;28;20030;-65
2024/02/10 04:12:21;;;;;;;6.43;2.08;;;10.50;99.90;;;;;;4973901;28;20030;-65
2024/02/10 04:14:47;;;;;;;6.32;2.65;;;10.40;99.90;;;;;;4971767;28;20030;-65
2024/02/10 04:17:13;;;;;;;7.15;2.35;;;10.40;99.90;;;;;;4990907;28;20030;-65
2024/02/10 04:19:39;;;;;;;6.10;2.00;;;10.40;99.90;;;;;;4991023;28;20109;-65
2024/02/10 04:22:06;;;;;;;3.17;1.88;;;10.40;99.90;;;;;;4990844;28;20022;-65
2024/02/10 04:24:32;;;;;;;3.83;1.98;;;10.40;99.90;;;;;;4989764;28;20061;-65
2024/02/10 04:26:58;;;;;;;5.38;2.22;;;10.40;99.90;;;;;;4991012;28;20065;-65
2024/02/10 04:29:24;;;;;;;5.70;3.00;;;10.30;99.90;;;;;;4976721;28;20038;-65
2024/02/10 04:31:56;;;;;;;6.65;2.88;;;10.40;99.90;;;;;;4995537;28;20034;-65
2024/02/10 04:34:23;;;;;;;7.32;2.67;;;10.30;99.90;;;;;;4987033;28;20076;-65
2024/02/10 04:36:50;;;;;;;3.55;2.17;;;10.20;99.90;;;;;;4986667;28;20494;-65
2024/02/10 04:39:16;;;;;;;4.72;2.22;;;10.20;99.90;;;;;;4990481;28;20030;-65
2024/02/10 04:41:42;;;;;;;6.55;3.03;;;10.10;99.90;;;;;;4994887;28;20565;-65
2024/02/10 04:44:08;;;;;;;6.10;2.78;;;10.10;99.90;;;;;;4993987;28;20031;-65
2024/02/10 04:46:33;;;;;;;4.47;2.55;;;10.00;99.90;;;;;;4977328;28;20577;-65
2024/02/10 04:48:59;;;;;;;8.50;2.08;;;10.00;99.90;;;;;;4994437;28;20046;-65
2024/02/10 04:51:26;;;;;;;4.00;2.45;;;9.90;99.90;;;;;;4994343;28;20116;-65
2024/02/10 04:53:52;;;;;;;6.30;2.70;;;9.90;99.90;;;;;;4994030;28;20115;-65
2024/02/10 04:56:18;;;;;;;6.00;2.72;;;9.90;99.90;;;;;;4994773;28;20026;-65
2024/02/10 04:58:49;;;;;;;3.17;2.53;;;9.80;99.90;;;;;;4994425;28;20678;-65
2024/02/10 05:01:20;;;;;;;6.43;2.97;;;9.80;99.90;;;;;;4985471;28;20419;-65
2024/02/10 05:03:49;;;;;;;5.05;2.78;;;9.80;99.90;;;;;;4993005;28;20061;-65
2024/02/10 05:06:14;;;;;;;5.63;2.17;;;9.80;99.90;;;;;;4993965;28;20108;-65
2024/02/10 05:08:40;;;;;;;4.03;2.13;;;9.70;99.90;;;;;;4994166;28;20662;-65
2024/02/10 05:11:06;;;;;;;6.53;3.42;;;9.70;99.90;;;;;;4994297;28;20479;-65
2024/02/10 05:13:32;;;;;;;5.25;2.42;;;9.70;99.90;;;;;;4993275;28;20062;-65
2024/02/10 05:15:58;;;;;;;4.75;2.15;;;9.70;99.90;;;;;;4987834;28;20046;-65
2024/02/10 05:18:23;;;;;;;4.07;2.60;;;9.70;99.90;;;;;;4976406;28;20038;-65
2024/02/10 05:20:49;;;;;;;5.32;2.60;;;9.60;99.90;;;;;;4994140;28;20033;-65
2024/02/10 05:23:16;;;;;;;4.38;2.45;;;9.60;99.90;;;;;;4993229;28;20030;-65
2024/02/10 05:25:42;;;;;;;5.10;2.80;;;9.60;99.90;;;;;;4994234;28;20076;-65
2024/02/10 05:28:08;;;;;;;4.25;2.25;;;9.50;99.90;;;;;;4993824;28;20026;-65
2024/02/10 05:30:33;;;;;;;4.68;2.75;;;9.50;99.90;;;;;;4984315;28;20033;-65
2024/02/10 05:33:01;;;;;;;3.45;1.83;;;9.50;99.90;;;;;;4993442;28;20113;-65
2024/02/10 05:35:29;;;;;;;5.13;2.63;;;9.40;99.90;;;;;;4994575;28;20077;-65
2024/02/10 05:37:58;;;;;;;6.10;2.83;;;9.50;99.90;;;;;;4993750;28;20038;-65
2024/02/10 05:40:28;;;;;;;7.22;3.60;;;9.40;99.90;;;;;;4976897;28;20030;-65
2024/02/10 05:42:58;;;;;;;7.97;3.73;;;9.40;99.90;;;;;;4976896;28;20042;-65
2024/02/10 05:45:25;;;;;;;6.22;3.08;;;9.40;99.90;;;;;;4984669;28;20030;-65
2024/02/10 05:47:52;;;;;;;6.47;3.72;;;9.30;99.90;;;;;;4987561;28;20036;-66
2024/02/10 05:50:20;;;;;;;6.38;2.50;;;9.30;99.90;;;;;;4985096;28;20034;-65
2024/02/10 05:52:47;;;;;;;5.75;2.10;;;9.00;99.90;;;;;;4976943;28;20051;-66
2024/02/10 05:55:25;;;;;;;5.20;3.10;;;8.90;99.90;;;;;;4993507;28;20061;-63
2024/02/10 05:57:55;;;;;;;5.72;3.58;;;8.80;99.90;;;;;;4994393;28;20022;-64
2024/02/10 06:00:22;;;;;;;4.53;3.45;;;8.80;99.90;;;;;;4993776;28;20022;-66
2024/02/10 06:02:48;;;;;;;7.30;3.60;;;8.80;99.90;;;;;;4993685;28;20479;-65
2024/02/10 06:05:15;;;;;;;4.50;2.80;;;8.80;99.90;;;;;;4992983;28;20053;-65
2024/02/10 06:07:42;;;;;;;11.18;3.90;;;8.80;99.90;;;;;;4993566;28;20137;-64
2024/02/10 06:10:13;;;;;;;7.72;2.65;;;8.80;99.90;;;;;;4976064;28;20030;-64
2024/02/10 06:12:51;;;;;;;6.13;2.70;;;8.70;99.90;;;;;;4987888;28;20517;-64
2024/02/10 06:15:19;;;;;;;5.38;2.65;;;8.70;99.90;;;;;;4985817;28;20117;-64
2024/02/10 06:18:03;;;;;;;7.70;3.17;;;8.70;99.90;;;;;;4987461;28;20023;-64
2024/02/10 06:20:33;;;;;;;5.35;2.97;;;8.70;99.90;;;;;;4970606;28;20427;-64
2024/02/10 06:22:59;;;;;;;8.13;3.75;;;8.70;99.90;;;;;;4975811;28;20042;-64
2024/02/10 06:25:25;;;;;;;7.32;2.75;;;8.60;99.90;;;;;;4993237;28;20034;-64
2024/02/10 06:27:59;;;;;;;5.25;2.47;;;8.60;99.90;;;;;;4993754;28;20117;-64
2024/02/10 06:30:30;;;;;;;5.78;2.75;;;8.60;99.90;;;;;;4984229;28;20026;-64
2024/02/10 06:32:56;;;;;;;;;;;8.50;99.90;;;;;;4960273;28;20062;-64
2024/02/10 06:35:23;;;;;;;7.03;2.67;;;8.50;99.90;;;;;;4975774;28;19950;-64
2024/02/10 06:37:52;;;;;;;5.05;2.83;;;8.40;99.90;;;;;;4990210;28;20062;-64
2024/02/10 06:40:18;;;;;;;7.15;3.08;;;8.30;99.90;;;;;;4987438;28;20033;-65
2024/02/10 06:42:52;;;;;;;7.18;3.55;;;8.30;99.90;;;;;;4987236;28;20064;-66
2024/02/10 06:45:21;;;;;;;7.63;3.55;;;8.20;99.90;;;;;;4972012;28;20114;-66
2024/02/10 06:47:49;;;;;;;6.05;3.55;;;8.20;99.90;;;;;;4990199;28;20026;-65
2024/02/10 06:50:23;;;;;;;7.13;4.10;;;8.30;99.90;;;;;;4992728;28;20093;-66
2024/02/10 06:52:50;;;;;;;5.88;2.92;;;8.30;99.90;;;;;;4977292;28;20475;-66
2024/02/10 06:55:16;;;;;;;4.90;2.38;;;8.30;99.90;;;;;;4976134;28;20036;-65
2024/02/10 06:57:47;;;;;;;4.25;1.73;;;8.30;99.90;;;;;;4982283;28;20034;-69
2024/02/10 07:00:15;;;;;;;4.00;2.35;;;8.20;99.90;;;;;;4977199;28;20030;-65
2024/02/10 07:02:45;;;;;;;5.65;2.60;;;8.20;99.90;;;;;;4975465;28;20033;-65
2024/02/10 07:05:19;;;;;;;5.05;2.88;;;8.20;99.90;;;;;;4992986;28;20034;-66
2024/02/10 07:07:48;;;;;;;32.63;12.95;;;8.20;99.90;;;;;;4967841;28;20026;-65
2024/02/10 07:10:19;;;;;;;39.20;19.48;;;8.20;99.90;;;;;;4983722;28;20169;-65
2024/02/10 07:12:52;;;;;;;10.70;6.40;;;8.20;99.90;;;;;;4976800;28;20038;-65
2024/02/10 07:15:20;;;;;;;10.82;5.00;;;8.20;99.90;;;;;;4955905;28;20038;-67
2024/02/10 07:17:52;;;;;;;9.13;3.88;;;8.40;99.90;;;;;;4975392;28;20026;-64
2024/02/10 07:20:31;;;;;;;7.70;3.92;;;8.40;99.90;;;;;;4974359;28;20029;-65
2024/02/10 07:23:00;;;;;;;5.60;2.50;;;8.40;99.90;;;;;;4991939;28;20518;-66
2024/02/10 07:25:27;;;;;;;5.63;2.83;;;8.40;99.90;;;;;;4971706;28;20091;-66
2024/02/10 07:28:00;;;;;;;8.55;3.65;;;8.40;99.90;;;;;;4972004;28;20046;-66
2024/02/10 07:30:32;;;;;;;8.77;4.35;;;8.40;99.90;;;;;;4972246;28;20035;-66
2024/02/10 07:33:03;;;;;;;10.63;4.13;;;8.50;99.90;;;;;;4970820;28;20041;-66
2024/02/10 07:35:32;;;;;;;;;;;8.60;99.90;;;;;;4981568;28;20026;-66
2024/02/10 07:37:58;;;;;;;5.05;2.55;;;8.70;99.90;;;;;;4967645;28;19914;-65
2024/02/10 07:40:24;;;;;;;6.10;3.20;;;8.70;99.90;;;;;;5001641;23;20082;-67
2024/02/10 07:42:52;;;;;;;7.07;3.72;;;8.70;99.90;;;;;;5024675;28;20148;-68
2024/02/10 07:45:19;;;;;;;6.22;3.30;;;8.80;99.90;;;;;;5012645;28;20115;-66
2024/02/10 07:47:45;;;;;;;15.52;3.13;;;8.80;99.90;;;;;;5017021;28;20141;-68
2024/02/10 07:50:11;;;;;;;12.15;3.97;;;8.80;99.90;;;;;;5026946;28;20096;-67
2024/02/10 07:52:40;;;;;;;8.02;4.22;;;8.80;99.90;;;;;;5021418;28;20036;-66
2024/02/10 07:55:12;;;;;;;12.40;5.45;;;8.80;99.90;;;;;;5013322;28;20025;-67
2024/02/10 07:57:39;;;;;;;7.93;3.83;;;8.90;99.90;;;;;;5018610;28;20099;-67
2024/02/10 08:00:09;;;;;;;7.40;3.70;;;9.00;99.90;;;;;;5037112;28;20025;-67
2024/02/10 08:02:35;;;;;;;7.20;3.10;;;9.00;99.90;;;;;;5022626;28;20026;-67
2024/02/10 08:05:04;;;;;;;6.30;3.10;;;9.00;99.90;;;;;;5029111;28;20112;-67
2024/02/10 08:07:30;;;;;;;6.13;3.35;;;8.90;99.90;;;;;;5029787;28;20461;-67
2024/02/10 08:09:57;;;;;;;10.15;3.33;;;9.00;99.90;;;;;;5015362;28;20554;-67
2024/02/10 08:12:23;;;;;;;8.82;3.58;;;9.10;99.90;;;;;;5025303;28;20026;-66
2024/02/10 08:14:50;;;;;;;9.95;4.03;;;9.20;99.90;;;;;;5017589;28;20536;-66
2024/02/10 08:17:20;;;;;;;12.57;5.38;;;9.30;99.90;;;;;;5025137;28;20376;-67
2024/02/10 08:19:47;;;;;;;8.15;4.03;;;9.50;99.90;;;;;;5023264;28;20359;-67
2024/02/10 08:22:13;;;;;;;7.03;3.65;;;9.60;99.90;;;;;;5023735;28;20045;-68
2024/02/10 08:24:39;;;;;;;9.38;4.18;;;9.70;99.90;;;;;;5028013;28;20038;-67
2024/02/10 08:27:14;;;;;;;6.97;4.10;;;9.80;99.90;;;;;;5024642;28;20036;-68
2024/02/10 08:29:39;;;;;;;9.93;5.15;;;9.90;99.90;;;;;;5032259;28;20500;-68
2024/02/10 08:32:08;;;;;;;7.40;4.03;;;9.90;99.90;;;;;;5017485;28;20033;-67
2024/02/10 08:34:38;;;;;;;8.45;4.28;;;10.00;99.90;;;;;;5023219;28;20037;-67
2024/02/10 08:37:04;;;;;;;8.55;3.92;;;10.00;99.90;;;;;;5014952;28;20510;-67
2024/02/10 08:39:31;;;;;;;7.93;4.13;;;9.90;99.90;;;;;;5031007;28;20021;-67
2024/02/10 08:42:01;;;;;;;8.35;3.70;;;10.10;99.90;;;;;;5016954;28;20032;-68
2024/02/10 08:44:28;;;;;;;9.50;3.80;;;10.10;99.90;;;;;;5019897;28;20030;-67
2024/02/10 08:46:53;;;;;;;9.05;3.72;;;10.20;99.90;;;;;;5015321;28;20042;-67
2024/02/10 08:49:19;;;;;;;15.05;4.35;;;10.30;99.90;;;;;;5023861;28;20037;-67
2024/02/10 08:51:49;;;;;;;10.27;4.93;;;10.40;99.90;;;;;;5019220;28;20040;-67
2024/02/10 08:54:16;;;;;;;33.60;5.70;;;10.50;99.90;;;;;;5024995;28;20022;-67
2024/02/10 08:56:43;;;;;;;6.20;3.65;;;10.50;99.90;;;;;;5031344;28;20018;-67
2024/02/10 08:59:12;;;;;;;8.27;4.00;;;10.60;99.90;;;;;;5008638;28;20063;-67
2024/02/10 09:01:42;;;;;;;8.32;2.65;;;10.80;99.90;;;;;;5007347;28;20053;-66
2024/02/10 09:04:09;;;;;;;6.35;2.90;;;10.80;99.90;;;;;;5022380;28;20064;-66
2024/02/10 09:06:36;;;;;;;7.97;2.17;;;10.90;99.90;;;;;;5028648;28;20054;-66
2024/02/10 09:09:10;;;;;;;4.47;2.17;;;10.90;99.90;;;;;;5026919;28;20034;-67
2024/02/10 09:11:39;;;;;;;3.15;2.15;;;10.90;99.90;;;;;;5020090;28;20040;-68
2024/02/10 09:14:08;;;;;;;6.63;2.50;;;11.00;99.90;;;;;;5024118;28;20026;-67
2024/02/10 09:16:34;;;;;;;4.93;2.22;;;11.00;99.90;;;;;;5029142;28;20056;-67
2024/02/10 09:19:00;;;;;;;5.97;2.15;;;10.90;99.90;;;;;;5014352;28;20498;-67
2024/02/10 09:21:25;;;;;;;4.88;2.28;;;10.90;99.90;;;;;;5019793;28;20044;-67
2024/02/10 09:23:51;;;;;;;3.97;2.05;;;11.00;99.90;;;;;;5016178;28;20026;-67
2024/02/10 09:26:17;;;;;;;6.70;2.17;;;11.10;99.90;;;;;;5015776;28;20049;-67
2024/02/10 09:28:47;;;;;;;5.55;2.13;;;11.20;99.90;;;;;;5019965;28;20029;-67
2024/02/10 09:31:13;;;;;;;4.25;2.45;;;11.20;99.90;;;;;;5023326;28;20037;-67
2024/02/10 09:33:41;;;;;;;3.80;1.98;;;11.20;99.90;;;;;;5028384;28;20087;-67
2024/02/10 09:36:08;;;;;;;5.57;1.85;;;11.30;99.90;;;;;;5030828;28;20029;-68
2024/02/10 09:38:37;;;;;;;3.80;2.35;;;11.40;99.90;;;;;;5013607;28;20505;-68
2024/02/10 09:41:04;;;;;;;2.67;1.95;;;11.50;99.90;;;;;;5016120;28;20040;-67
2024/02/10 09:43:36;;;;;;;6.07;2.25;;;11.50;99.90;;;;;;5019075;28;20030;-68
2024/02/10 09:46:06;;;;;;;3.88;1.92;;;11.70;99.90;;;;;;5022894;28;20042;-68
2024/02/10 09:48:40;;;;;;;3.17;1.75;;;11.60;99.90;;;;;;5021966;28;20041;-68
2024/02/10 09:51:07;;;;;;;8.73;1.67;;;11.80;99.90;;;;;;5023682;28;20029;-68
2024/02/10 09:53:34;;;;;;;4.47;2.10;;;11.90;99.90;;;;;;5028305;28;20084;-68
2024/02/10 09:56:00;;;;;;;4.00;1.73;;;11.80;99.90;;;;;;5030414;28;20053;-68
2024/02/10 09:58:26;;;;;;;3.15;1.52;;;12.00;99.90;;;;;;5021311;28;20025;-68
2024/02/10 10:00:53;;;;;;;3.35;1.88;;;11.90;99.90;;;;;;5014784;28;20036;-68
2024/02/10 10:03:20;;;;;;;4.13;2.38;;;12.10;99.90;;;;;;5028620;28;20168;-69
2024/02/10 10:05:47;;;;;;;2.72;1.73;;;12.10;99.90;;;;;;5018506;28;20025;-69
2024/02/10 10:08:13;;;;;;;4.65;2.15;;;12.20;99.90;;;;;;5020860;28;20057;-61
2024/02/10 10:10:40;;;;;;;4.72;2.38;;;12.10;99.90;;;;;;5019542;28;20029;-62
2024/02/10 10:13:09;;;;;;;4.53;1.65;;;12.00;99.90;;;;;;5014414;28;20042;-60
2024/02/10 10:15:39;;;;;;;4.10;1.98;;;11.80;99.90;;;;;;5017430;28;20101;-67
2024/02/10 10:18:19;;;;;;;4.70;1.80;;;12.00;99.90;;;;;;5009608;28;20033;-68
2024/02/10 10:20:49;;;;;;;4.90;1.88;;;12.20;99.90;;;;;;5028236;28;20025;-69
2024/02/10 10:23:16;;;;;;;11.48;3.08;;;11.90;99.90;;;;;;5027089;28;20033;-67
2024/02/10 10:25:45;;;;;;;4.32;2.25;;;12.00;99.90;;;;;;5011469;28;20478;-69
2024/02/10 10:28:17;;;;;;;4.03;2.53;;;12.10;99.90;;;;;;5029216;28;20038;-69
2024/02/10 10:30:47;;;;;;;6.80;2.58;;;12.20;99.90;;;;;;5031314;28;20114;-69
2024/02/10 10:33:20;;;;;;;4.60;2.20;;;12.10;99.90;;;;;;5012542;28;20038;-68
2024/02/10 10:35:46;;;;;;;5.40;3.00;;;12.00;99.90;;;;;;5027534;28;20049;-68
2024/02/10 10:38:12;;;;;;;3.95;1.83;;;12.10;99.90;;;;;;5020086;28;20072;-68
2024/02/10 10:40:38;;;;;;;8.00;2.63;;;12.20;99.90;;;;;;5025381;28;20454;-69
2024/02/10 10:43:06;;;;;;;5.28;2.35;;;12.30;99.90;;;;;;5014613;28;20034;-67
2024/02/10 10:45:36;;;;;;;8.13;2.88;;;12.50;99.90;;;;;;5031006;28;20131;-66
2024/02/10 10:48:02;;;;;;;6.22;2.60;;;12.50;99.90;;;;;;5030248;28;20385;-67
2024/02/10 10:50:32;;;;;;;6.28;2.65;;;12.50;99.90;;;;;;5011465;28;20034;-66
2024/02/10 10:53:06;;;;;;;6.28;3.13;;;12.30;99.90;;;;;;5014122;28;20506;-67
2024/02/10 10:56:01;;;;;;;8.13;3.00;;;12.50;99.90;;;;;;5016858;28;20026;-66
2024/02/10 10:58:43;;;;;;;10.23;3.15;;;12.70;99.90;;;;;;5035407;28;20037;-66
2024/02/10 11:01:11;;;;;;;6.85;3.40;;;12.70;99.90;;;;;;5025367;28;20029;-66
2024/02/10 11:03:42;;;;;;;5.85;2.88;;;12.90;99.90;;;;;;5017003;28;20140;-66
2024/02/10 11:06:12;;;;;;;5.78;2.58;;;13.20;99.90;;;;;;5012674;28;20025;-66
2024/02/10 11:08:41;;;;;;;5.20;3.00;;;13.30;99.90;;;;;;5010666;28;20025;-67
2024/02/10 11:11:08;;;;;;;13.85;3.30;;;13.20;99.90;;;;;;5026941;28;20064;-70
2024/02/10 11:13:35;;;;;;;8.77;2.80;;;13.10;99.90;;;;;;5020876;28;20471;-69
2024/02/10 11:16:12;;;;;;;5.60;3.05;;;13.30;99.90;;;;;;5029530;28;20513;-70
2024/02/10 11:18:43;;;;;;;6.97;2.58;;;13.40;99.90;;;;;;5030626;28;20477;-70
2024/02/10 11:21:26;;;;;;;5.43;3.33;;;13.40;99.90;;;;;;5016472;28;20061;-67
2024/02/10 11:24:11;;;;;;;10.98;4.15;;;13.40;99.90;;;;;;5010671;28;20394;-67
2024/02/10 11:26:39;;;;;;;7.30;3.80;;;13.60;99.90;;;;;;5029929;28;20099;-66
2024/02/10 11:29:10;;;;;;;6.20;2.90;;;13.60;99.90;;;;;;5020523;28;20506;-67
2024/02/10 11:31:39;;;;;;;6.28;3.15;;;13.70;99.90;;;;;;5012682;28;20081;-67
2024/02/10 11:34:16;;;;;;;8.35;3.55;;;13.70;99.90;;;;;;5011370;28;20503;-67
2024/02/10 11:36:53;;;;;;;6.78;3.55;;;13.70;99.90;;;;;;5025548;28;20108;-67
2024/02/10 11:39:24;;;;;;;7.57;3.05;;;13.60;99.90;;;;;;4987677;28;20406;-67
2024/02/10 11:41:58;;;;;;;4.97;2.83;;;13.70;99.90;;;;;;5055054;28;20105;-67
2024/02/10 11:44:28;;;;;;;7.70;4.05;;;13.70;99.90;;;;;;5029649;28;20037;-67
2024/02/10 11:46:59;;;;;;;5.77;3.13;;;13.50;99.90;;;;;;5033240;28;20044;-67
2024/02/10 11:49:26;;;;;;;5.40;3.03;;;13.60;99.90;;;;;;5039349;28;20782;-67
2024/02/10 11:51:58;;;;;;;6.38;3.00;;;13.70;99.90;;;;;;5050033;28;20292;-56
2024/02/10 11:54:27;;;;;;;8.52;2.83;;;13.70;99.90;;;;;;5039071;28;20385;-56
2024/02/10 11:56:53;;;;;;;5.50;2.55;;;13.80;99.90;;;;;;5048380;28;20032;-56
2024/02/10 11:59:19;;;;;;;6.65;2.70;;;13.90;99.90;;;;;;5042502;28;20032;-54
2024/02/10 12:01:46;;;;;;;4.28;2.17;;;13.90;99.90;;;;;;5041197;28;20037;-55
2024/02/10 12:04:18;;;;;;;5.20;1.90;;;13.90;99.90;;;;;;5037174;28;20052;-54
2024/02/10 12:06:50;;;;;;;7.93;2.83;;;13.80;99.90;;;;;;5039580;28;20745;-72
2024/02/10 12:09:17;;;;;;;3.70;1.55;;;13.70;99.90;;;;;;5021891;28;20033;-72
2024/02/10 12:11:46;;;;;;;6.68;2.50;;;13.70;99.90;;;;;;5033018;28;20635;-73
2024/02/10 12:14:15;;;;;;;4.57;2.22;;;13.50;99.90;;;;;;5028267;28;20032;-73
2024/02/10 12:16:44;;;;;;;6.15;2.40;;;13.50;99.90;;;;;;5031699;28;20480;-72
2024/02/10 12:19:14;;;;;;;5.82;2.70;;;13.60;99.90;;;;;;5029696;28;20045;-72
2024/02/10 12:21:42;;;;;;;4.95;2.42;;;13.50;99.90;;;;;;5024217;28;20050;-72
2024/02/10 12:24:12;;;;;;;6.28;2.97;;;13.50;99.90;;;;;;5031509;28;20496;-72
2024/02/10 12:26:38;;;;;;;6.80;2.85;;;13.40;99.90;;;;;;5032063;28;20423;-72
2024/02/10 12:29:09;;;;;;;4.18;1.90;;;13.40;99.90;;;;;;5040113;28;20036;-72
2024/02/10 12:31:35;;;;;;;3.17;2.15;;;13.30;99.90;;;;;;5036633;28;20363;-72
2024/02/10 12:34:04;;;;;;;8.55;2.72;;;13.10;99.90;;;;;;5029059;28;20033;-72
2024/02/10 12:36:33;;;;;;;4.40;2.58;;;13.20;99.90;;;;;;5039867;28;20040;-72
2024/02/10 12:39:02;;;;;;;8.52;3.83;;;13.10;99.90;;;;;;5030803;28;20053;-73
2024/02/10 12:41:27;;;;;;;4.18;2.58;;;13.10;99.90;;;;;;5035480;28;20029;-72
2024/02/10 12:43:53;;;;;;;5.72;2.45;;;12.90;99.90;;;;;;5032908;28;20117;-72
2024/02/10 12:46:22;;;;;;;4.13;2.30;;;12.90;99.90;;;;;;5031778;28;20455;-72
2024/02/10 12:48:50;;;;;;;6.57;3.28;;;12.90;99.90;;;;;;5052168;28;20063;-72
2024/02/10 12:51:16;;;;;;;7.68;3.22;;;13.00;99.90;;;;;;5032719;28;20040;-72
2024/02/10 12:53:43;;;;;;;4.68;2.38;;;13.00;99.90;;;;;;5029472;28;20132;-75
2024/02/10 12:56:10;;;;;;;8.32;2.30;;;12.80;99.90;;;;;;5031786;28;20464;-68